createdAt,value
2018-03-21T00:00:39.730Z,95729
2018-03-21T00:03:08.022Z,95726
2018-03-21T00:05:36.210Z,95728
2018-03-21T00:08:04.630Z,95722
2018-03-21T00:10:33.500Z,95728
2018-03-21T00:13:01.775Z,95731
2018-03-21T00:15:29.888Z,95733
2018-03-21T00:17:58.016Z,95740
2018-03-21T00:20:26.116Z,95724
2018-03-21T00:22:54.228Z,95734
2018-03-21T00:25:22.334Z,95729
2018-03-21T00:27:50.500Z,95730
2018-03-21T00:30:18.615Z,95732
2018-03-21T00:32:46.769Z,95738
2018-03-21T00:35:15.207Z,95735
2018-03-21T00:37:43.309Z,95733
2018-03-21T00:40:11.435Z,95731
2018-03-21T00:42:39.542Z,95734
2018-03-21T00:45:07.646Z,95731
2018-03-21T00:47:35.745Z,95731
2018-03-21T00:50:03.844Z,95740
2018-03-21T00:52:31.989Z,95739
2018-03-21T00:55:00.142Z,95738
2018-03-21T00:57:28.343Z,95741
2018-03-21T00:59:56.449Z,95735
2018-03-21T01:02:24.580Z,95735
2018-03-21T01:04:52.718Z,95737
2018-03-21T01:07:20.845Z,95739
2018-03-21T01:09:48.971Z,95741
2018-03-21T01:12:17.080Z,95734
2018-03-21T01:14:45.220Z,95736
2018-03-21T01:17:14.188Z,95742
2018-03-21T01:19:42.748Z,95738
2018-03-21T01:22:10.863Z,95740
2018-03-21T01:24:39.764Z,95737
2018-03-21T01:27:08.541Z,95738
2018-03-21T01:29:36.644Z,95739
2018-03-21T01:32:04.843Z,95734
2018-03-21T01:34:33.213Z,95732
2018-03-21T01:37:01.470Z,95736
2018-03-21T01:39:29.582Z,95731
2018-03-21T01:41:57.729Z,95735
2018-03-21T01:44:25.842Z,95731
2018-03-21T01:46:54.536Z,95727
2018-03-21T01:49:22.658Z,95736
2018-03-21T01:51:50.784Z,95738
2018-03-21T01:54:19.004Z,95730
2018-03-21T01:56:47.143Z,95730
2018-03-21T01:59:16.732Z,95724
2018-03-21T02:01:45.488Z,95728
2018-03-21T02:04:13.728Z,95730
2018-03-21T02:06:42.089Z,95730
2018-03-21T02:09:10.512Z,95728
2018-03-21T02:11:38.607Z,95725
2018-03-21T02:14:06.721Z,95735
2018-03-21T02:16:34.818Z,95736
2018-03-21T02:19:02.921Z,95744
2018-03-21T02:21:31.017Z,95740
2018-03-21T02:23:59.129Z,95727
2018-03-21T02:26:27.261Z,95724
2018-03-21T02:28:56.125Z,95726
2018-03-21T02:31:24.487Z,95732
2018-03-21T02:33:52.663Z,95738
2018-03-21T02:36:20.801Z,95737
2018-03-21T02:38:48.915Z,95736
2018-03-21T02:41:17.005Z,95740
2018-03-21T02:43:45.111Z,95737
2018-03-21T02:46:13.208Z,95729
2018-03-21T02:48:41.331Z,95732
2018-03-21T02:51:10.109Z,95742
2018-03-21T02:53:38.202Z,95735
2018-03-21T02:56:06.382Z,95727
2018-03-21T02:58:34.540Z,95736
2018-03-21T03:01:02.652Z,95735
2018-03-21T03:03:30.770Z,95741
2018-03-21T03:05:58.877Z,95749
2018-03-21T03:08:27.787Z,95741
2018-03-21T03:10:55.883Z,95739
2018-03-21T03:13:24.464Z,95733
2018-03-21T03:15:52.566Z,95743
2018-03-21T03:18:20.692Z,95751
2018-03-21T03:20:48.788Z,95762
2018-03-21T03:23:16.903Z,95752
2018-03-21T03:25:45.021Z,95757
2018-03-21T03:28:13.122Z,95756
2018-03-21T03:30:41.241Z,95756
2018-03-21T03:33:09.348Z,95758
2018-03-21T03:35:37.461Z,95750
2018-03-21T03:38:05.593Z,95745
2018-03-21T03:40:33.737Z,95742
2018-03-21T03:43:01.837Z,95756
2018-03-21T03:45:29.931Z,95756
2018-03-21T03:47:58.034Z,95755
2018-03-21T03:50:26.189Z,95752
2018-03-21T03:52:54.352Z,95755
2018-03-21T03:55:22.457Z,95756
2018-03-21T03:57:50.570Z,95753
2018-03-21T04:00:18.674Z,95756
2018-03-21T04:02:46.956Z,95763
2018-03-21T04:05:15.165Z,95762
2018-03-21T04:07:43.277Z,95760
2018-03-21T04:10:11.399Z,95757
2018-03-21T04:12:40.001Z,95763
2018-03-21T04:15:08.207Z,95763
2018-03-21T04:17:36.353Z,95773
2018-03-21T04:20:04.601Z,95768
2018-03-21T04:22:32.819Z,95780
2018-03-21T04:25:00.923Z,95772
2018-03-21T04:27:29.045Z,95772
2018-03-21T04:29:57.137Z,95766
2018-03-21T04:32:25.264Z,95767
2018-03-21T04:34:54.167Z,95769
2018-03-21T04:37:22.284Z,95777
2018-03-21T04:39:50.385Z,95773
2018-03-21T04:42:18.800Z,95776
2018-03-21T04:44:46.898Z,95778
2018-03-21T04:47:14.999Z,95779
2018-03-21T04:49:43.168Z,95781
2018-03-21T04:52:11.276Z,95778
2018-03-21T04:54:39.392Z,95785
2018-03-21T04:57:07.506Z,95788
2018-03-21T04:59:35.688Z,95798
2018-03-21T05:02:03.920Z,95794
2018-03-21T05:04:32.196Z,95799
2018-03-21T05:07:00.387Z,95793
2018-03-21T05:09:28.518Z,95797
2018-03-21T05:11:56.627Z,95798
2018-03-21T05:14:24.896Z,95797
2018-03-21T05:16:53.019Z,95797
2018-03-21T05:19:21.117Z,95811
2018-03-21T05:21:49.236Z,95810
2018-03-21T05:24:17.368Z,95814
2018-03-21T05:26:45.456Z,95822
2018-03-21T05:29:13.642Z,95824
2018-03-21T05:31:41.760Z,95820
2018-03-21T05:34:09.869Z,95819
2018-03-21T05:36:38.735Z,95835
2018-03-21T05:39:06.863Z,95835
2018-03-21T05:41:34.989Z,95838
2018-03-21T05:44:03.155Z,95835
2018-03-21T05:46:31.367Z,95847
2018-03-21T05:48:59.533Z,95845
2018-03-21T05:51:28.511Z,95857
2018-03-21T05:53:57.384Z,95854
2018-03-21T05:56:25.568Z,95860
2018-03-21T05:58:53.666Z,95859
2018-03-21T06:01:21.785Z,95858
2018-03-21T06:03:49.893Z,95869
2018-03-21T06:06:18.042Z,95874
2018-03-21T06:08:46.161Z,95870
2018-03-21T06:11:14.367Z,95873
2018-03-21T06:13:42.524Z,95871
2018-03-21T06:16:11.406Z,95878
2018-03-21T06:18:39.538Z,95879
2018-03-21T06:21:07.767Z,95889
2018-03-21T06:23:35.900Z,95901
2018-03-21T06:26:04.012Z,95900
2018-03-21T06:28:32.901Z,95893
2018-03-21T06:31:01.084Z,95908
2018-03-21T06:33:29.196Z,95907
2018-03-21T06:35:58.221Z,95911
2018-03-21T06:38:26.348Z,95918
2018-03-21T06:40:54.536Z,95918
2018-03-21T06:43:22.649Z,95923
2018-03-21T06:45:50.738Z,95922
2018-03-21T06:48:18.866Z,95915
2018-03-21T06:50:46.946Z,95931
2018-03-21T06:53:15.088Z,95933
2018-03-21T06:55:44.644Z,95941
2018-03-21T06:58:12.745Z,95936
2018-03-21T07:00:40.851Z,95948
2018-03-21T07:03:08.981Z,95950
2018-03-21T07:05:37.189Z,95945
2018-03-21T07:08:05.414Z,95952
2018-03-21T07:10:33.657Z,95945
2018-03-21T07:13:01.765Z,95952
2018-03-21T07:15:47.879Z,95956
2018-03-21T07:18:15.970Z,95962
2018-03-21T07:20:44.125Z,95959
2018-03-21T07:23:12.262Z,95960
2018-03-21T07:25:40.368Z,95965
2018-03-21T07:28:08.539Z,95974
2018-03-21T07:30:37.229Z,95975
2018-03-21T07:33:05.359Z,95977
2018-03-21T07:35:33.484Z,95983
2018-03-21T07:38:01.603Z,95972
2018-03-21T07:40:29.742Z,95985
2018-03-21T07:42:57.868Z,95990
2018-03-21T07:45:25.974Z,95993
2018-03-21T07:47:54.076Z,96000
2018-03-21T07:50:22.276Z,95999
2018-03-21T07:52:50.460Z,95997
2018-03-21T07:55:18.950Z,96000
2018-03-21T07:57:47.068Z,96014
2018-03-21T08:00:15.254Z,96008
2018-03-21T08:02:43.676Z,96012
2018-03-21T08:05:12.083Z,96014
2018-03-21T08:07:40.208Z,96013
2018-03-21T08:10:08.296Z,96025
2018-03-21T08:12:37.201Z,96022
2018-03-21T08:15:05.310Z,96031
2018-03-21T08:17:33.420Z,96035
2018-03-21T08:20:01.520Z,96034
2018-03-21T08:22:29.605Z,96029
2018-03-21T08:24:57.731Z,96031
2018-03-21T08:27:25.850Z,96036
2018-03-21T08:29:53.964Z,96043
2018-03-21T08:32:22.070Z,96040
2018-03-21T08:34:50.464Z,96048
2018-03-21T08:37:18.568Z,96043
2018-03-21T08:39:46.725Z,96062
2018-03-21T08:42:14.940Z,96050
2018-03-21T08:44:43.002Z,96062
2018-03-21T08:47:15.299Z,96061
2018-03-21T08:49:43.418Z,96063
2018-03-21T08:52:11.530Z,96066
2018-03-21T08:54:39.644Z,96066
2018-03-21T08:57:07.805Z,96062
2018-03-21T08:59:36.008Z,96066
2018-03-21T09:02:04.156Z,96073
2018-03-21T09:04:33.774Z,96073
2018-03-21T09:07:01.886Z,96074
2018-03-21T09:09:30.044Z,96074
2018-03-21T09:11:58.152Z,96082
2018-03-21T09:14:26.274Z,96088
2018-03-21T09:16:54.849Z,96077
2018-03-21T09:19:23.011Z,96085
2018-03-21T09:21:55.139Z,96083
2018-03-21T09:24:23.570Z,96078
2018-03-21T09:26:51.703Z,96091
2018-03-21T09:29:19.885Z,96084
2018-03-21T09:31:48.027Z,96090
2018-03-21T09:34:16.645Z,96098
2018-03-21T09:36:45.155Z,96094
2018-03-21T09:39:13.267Z,96095
2018-03-21T09:41:41.354Z,96089
2018-03-21T09:44:09.455Z,96098
2018-03-21T09:46:37.581Z,96095
2018-03-21T09:49:05.682Z,96102
2018-03-21T09:51:33.781Z,96104
2018-03-21T09:54:09.364Z,96093
2018-03-21T09:56:37.520Z,96086
2018-03-21T09:59:05.767Z,96088
2018-03-21T10:01:33.984Z,96096
2018-03-21T10:04:02.180Z,96104
2018-03-21T10:06:31.212Z,96102
2018-03-21T10:09:00.094Z,96105
2018-03-21T10:11:28.187Z,96102
2018-03-21T10:13:56.381Z,96102
2018-03-21T10:16:24.547Z,96094
2018-03-21T10:18:52.636Z,96101
2018-03-21T10:21:20.763Z,96104
2018-03-21T10:23:48.905Z,96107
2018-03-21T10:26:17.022Z,96109
2018-03-21T10:28:45.129Z,96106
2018-03-21T10:31:13.230Z,96106
2018-03-21T10:33:41.340Z,96116
2018-03-21T10:36:09.460Z,96113
2018-03-21T10:38:37.656Z,96116
2018-03-21T10:41:05.752Z,96114
2018-03-21T10:43:33.904Z,96114
2018-03-21T10:46:02.008Z,96108
2018-03-21T10:48:30.183Z,96120
2018-03-21T10:50:58.298Z,96114
2018-03-21T10:53:26.483Z,96115
2018-03-21T10:55:54.552Z,96119
2018-03-21T10:58:22.731Z,96109
2018-03-21T11:00:50.903Z,96108
2018-03-21T11:16:14.178Z,96108
2018-03-21T11:18:43.077Z,96099
2018-03-21T11:21:11.231Z,96092
2018-03-21T11:23:40.166Z,96100
2018-03-21T11:26:08.276Z,96101
2018-03-21T11:28:36.402Z,96110
2018-03-21T11:31:04.561Z,96105
2018-03-21T11:33:33.419Z,96107
2018-03-21T11:36:01.513Z,96096
2018-03-21T11:38:30.402Z,96100
2018-03-21T11:40:58.503Z,96088
2018-03-21T11:43:26.638Z,96095
2018-03-21T11:45:54.750Z,96106
2018-03-21T11:48:22.869Z,96095
2018-03-21T11:50:51.016Z,96098
2018-03-21T11:53:19.237Z,96097
2018-03-21T11:55:48.182Z,96104
2018-03-21T11:58:16.338Z,96104
2018-03-21T12:00:44.482Z,96090
2018-03-21T12:03:12.576Z,96092
2018-03-21T12:05:40.721Z,96097
2018-03-21T12:08:08.824Z,96090
2018-03-21T12:10:36.942Z,96089
2018-03-21T12:13:05.052Z,96084
2018-03-21T12:15:33.229Z,96088
2018-03-21T12:18:01.331Z,96088
2018-03-21T12:20:29.467Z,96087
2018-03-21T12:22:57.560Z,96088
2018-03-21T12:25:25.690Z,96090
2018-03-21T12:27:53.827Z,96079
2018-03-21T12:30:21.992Z,96104
2018-03-21T12:32:50.303Z,96085
2018-03-21T12:35:18.447Z,96082
2018-03-21T12:37:46.579Z,96085
2018-03-21T12:40:14.735Z,96079
2018-03-21T12:42:43.377Z,96082
2018-03-21T12:45:11.512Z,96080
2018-03-21T12:47:39.701Z,96081
2018-03-21T12:50:07.927Z,96084
2018-03-21T12:52:36.166Z,96086
2018-03-21T12:55:04.383Z,96088
2018-03-21T12:57:32.549Z,96083
2018-03-21T13:00:00.662Z,96088
2018-03-21T13:15:23.882Z,96095
2018-03-21T13:17:51.997Z,96085
2018-03-21T13:20:20.150Z,96078
2018-03-21T13:22:48.292Z,96078
2018-03-21T13:25:16.454Z,96070
2018-03-21T13:27:44.570Z,96074
2018-03-21T13:30:12.782Z,96067
2018-03-21T13:32:40.906Z,96076
2018-03-21T13:35:09.088Z,96081
2018-03-21T13:37:37.980Z,96074
2018-03-21T13:40:06.090Z,96070
2018-03-21T13:42:34.307Z,96078
2018-03-21T13:45:02.541Z,96064
2018-03-21T13:47:30.739Z,96066
2018-03-21T13:49:58.987Z,96082
2018-03-21T13:52:27.199Z,96077
2018-03-21T13:54:55.357Z,96071
2018-03-21T13:57:23.451Z,96066
2018-03-21T13:59:51.589Z,96077
2018-03-21T14:02:19.697Z,96082
2018-03-21T14:04:49.543Z,96078
2018-03-21T14:07:17.751Z,96077
2018-03-21T14:09:45.942Z,96078
2018-03-21T14:12:14.089Z,96076
2018-03-21T14:14:42.191Z,96073
2018-03-21T14:17:10.385Z,96072
2018-03-21T14:19:38.473Z,96078
2018-03-21T14:22:06.585Z,96073
2018-03-21T14:24:34.756Z,96080
2018-03-21T14:27:02.872Z,96082
2018-03-21T14:42:25.994Z,96082
2018-03-21T14:44:54.110Z,96082
2018-03-21T14:47:22.234Z,96086
2018-03-21T14:49:50.347Z,96092
2018-03-21T14:52:18.462Z,96087
2018-03-21T14:54:47.436Z,96089
2018-03-21T14:57:15.559Z,96098
2018-03-21T14:59:43.724Z,96095
2018-03-21T15:02:11.840Z,96098
2018-03-21T15:04:39.963Z,96100
2018-03-21T15:07:08.097Z,96099
2018-03-21T15:09:36.202Z,96093
2018-03-21T15:12:04.340Z,96104
2018-03-21T15:14:32.465Z,96103
2018-03-21T15:17:01.222Z,96108
2018-03-21T15:19:29.509Z,96110
2018-03-21T15:21:57.631Z,96107
2018-03-21T15:24:25.763Z,96117
2018-03-21T15:26:53.934Z,96106
2018-03-21T15:29:22.065Z,96118
2018-03-21T15:31:50.193Z,96112
2018-03-21T15:34:18.329Z,96105
2018-03-21T15:36:46.424Z,96107
2018-03-21T15:39:14.571Z,96107
2018-03-21T15:41:42.679Z,96111
2018-03-21T15:44:11.467Z,96119
2018-03-21T15:46:40.359Z,96117
2018-03-21T15:49:08.481Z,96121
2018-03-21T15:51:36.632Z,96119
2018-03-21T15:54:05.594Z,96121
2018-03-21T15:56:33.668Z,96128
2018-03-21T15:59:02.063Z,96123
2018-03-21T16:01:30.240Z,96131
2018-03-21T16:03:58.440Z,96133
2018-03-21T16:06:26.548Z,96127
2018-03-21T16:08:54.666Z,96127
2018-03-21T16:11:22.932Z,96134
2018-03-21T16:13:51.133Z,96130
2018-03-21T16:16:19.260Z,96133
2018-03-21T16:18:47.392Z,96125
2018-03-21T16:21:15.510Z,96123
2018-03-21T16:23:43.598Z,96132
2018-03-21T16:26:11.856Z,96131
2018-03-21T16:28:40.033Z,96140
2018-03-21T16:31:08.273Z,96143
2018-03-21T16:33:36.409Z,96146
2018-03-21T16:36:05.387Z,96143
2018-03-21T16:38:33.719Z,96147
2018-03-21T16:41:01.879Z,96149
2018-03-21T16:43:30.117Z,96149
2018-03-21T16:45:58.669Z,96155
2018-03-21T16:48:27.332Z,96157
2018-03-21T16:50:55.782Z,96151
2018-03-21T16:53:24.002Z,96153
2018-03-21T16:55:52.129Z,96163
2018-03-21T16:58:20.265Z,96168
2018-03-21T17:00:48.374Z,96167
2018-03-21T17:03:17.019Z,96167
2018-03-21T17:05:45.473Z,96164
2018-03-21T17:08:13.715Z,96165
2018-03-21T17:10:42.546Z,96171
2018-03-21T17:13:10.649Z,96168
2018-03-21T17:15:38.764Z,96182
2018-03-21T17:18:06.877Z,96180
2018-03-21T17:20:35.041Z,96184
2018-03-21T17:23:03.399Z,96188
2018-03-21T17:25:31.622Z,96192
2018-03-21T17:28:00.454Z,96201
2018-03-21T17:30:28.575Z,96195
2018-03-21T17:32:56.912Z,96194
2018-03-21T17:35:25.050Z,96192
2018-03-21T17:37:53.929Z,96200
2018-03-21T17:40:26.085Z,96201
2018-03-21T17:42:54.982Z,96212
2018-03-21T17:45:23.122Z,96209
2018-03-21T17:47:51.222Z,96206
2018-03-21T17:50:19.654Z,96213
2018-03-21T17:52:48.592Z,96216
2018-03-21T17:55:16.728Z,96212
2018-03-21T17:57:44.838Z,96221
2018-03-21T18:00:12.937Z,96216
2018-03-21T18:02:41.042Z,96218
2018-03-21T18:05:09.258Z,96215
2018-03-21T18:07:38.761Z,96210
2018-03-21T18:10:07.262Z,96209
2018-03-21T18:12:35.424Z,96205
2018-03-21T18:15:03.544Z,96212
2018-03-21T18:17:32.083Z,96227
2018-03-21T18:20:00.213Z,96219
2018-03-21T18:22:28.333Z,96230
2018-03-21T18:24:56.467Z,96235
2018-03-21T18:27:24.669Z,96236
2018-03-21T18:29:52.867Z,96229
2018-03-21T18:32:23.177Z,96214
2018-03-21T18:34:51.429Z,96220
2018-03-21T18:37:20.340Z,96216
2018-03-21T18:39:48.519Z,96230
2018-03-21T18:42:16.798Z,96221
2018-03-21T18:44:44.962Z,96220
2018-03-21T18:47:13.888Z,96227
2018-03-21T18:49:42.152Z,96213
2018-03-21T18:52:10.347Z,96233
2018-03-21T18:54:38.522Z,96223
2018-03-21T18:57:06.706Z,96217
2018-03-21T18:59:34.897Z,96223
2018-03-21T19:02:03.185Z,96215
2018-03-21T19:04:31.388Z,96228
2018-03-21T19:06:59.946Z,96220
2018-03-21T19:09:28.510Z,96215
2018-03-21T19:11:56.667Z,96229
2018-03-21T19:14:24.924Z,96233
2018-03-21T19:16:53.041Z,96234
2018-03-21T19:19:21.155Z,96230
2018-03-21T19:21:49.668Z,96236
2018-03-21T19:24:18.389Z,96229
2018-03-21T19:26:46.584Z,96236
2018-03-21T19:29:14.764Z,96234
2018-03-21T19:31:42.836Z,96233
2018-03-21T19:47:06.203Z,96222
2018-03-21T19:49:34.871Z,96220
2018-03-21T19:52:03.078Z,96214
2018-03-21T19:54:31.297Z,96220
2018-03-21T19:56:59.532Z,96223
2018-03-21T19:59:27.740Z,96233
2018-03-21T20:01:56.101Z,96223
2018-03-21T20:04:24.257Z,96223
2018-03-21T20:06:52.549Z,96228
2018-03-21T20:09:20.706Z,96218
2018-03-21T20:11:48.926Z,96221
2018-03-21T20:14:17.072Z,96222
2018-03-21T20:16:46.026Z,96222
2018-03-21T20:19:14.167Z,96227
2018-03-21T20:21:42.666Z,96228
2018-03-21T20:24:10.800Z,96235
2018-03-21T20:26:39.121Z,96239
2018-03-21T20:31:40.069Z,96223
2018-03-21T20:34:12.154Z,96229
2018-03-21T20:36:40.395Z,96231
2018-03-21T20:39:08.506Z,96232
2018-03-21T20:41:36.668Z,96229
2018-03-21T20:44:04.787Z,96219
2018-03-21T20:46:32.974Z,96220
2018-03-21T20:49:01.503Z,96218
2018-03-21T20:51:29.748Z,96216
2018-03-21T20:53:57.942Z,96217
2018-03-21T20:56:26.273Z,96211
2018-03-21T20:58:54.537Z,96208
2018-03-21T21:01:22.725Z,96203
2018-03-21T21:03:51.090Z,96204
2018-03-21T21:06:19.276Z,96203
2018-03-21T21:08:47.442Z,96203
2018-03-21T21:11:16.143Z,96203
2018-03-21T21:13:44.256Z,96205
2018-03-21T21:16:12.414Z,96197
2018-03-21T21:18:45.318Z,96205
2018-03-21T21:21:14.317Z,96200
2018-03-21T21:23:42.454Z,96198
2018-03-21T21:26:10.596Z,96202
2018-03-21T21:28:38.729Z,96206
2018-03-21T21:31:08.002Z,96199
2018-03-21T21:33:36.911Z,96195
2018-03-21T21:36:05.062Z,96198
2018-03-21T21:38:33.270Z,96195
2018-03-21T21:41:01.833Z,96194
2018-03-21T21:43:29.974Z,96187
2018-03-21T21:45:58.093Z,96188
2018-03-21T21:48:26.496Z,96189
2018-03-21T21:50:54.628Z,96188
2018-03-21T21:53:22.766Z,96182
2018-03-21T21:55:50.899Z,96185
2018-03-21T21:58:19.018Z,96187
2018-03-21T22:00:47.306Z,96200
2018-03-21T22:03:15.577Z,96193
2018-03-21T22:05:43.709Z,96192
2018-03-21T22:08:11.837Z,96186
2018-03-21T22:10:39.945Z,96183
2018-03-21T22:13:08.086Z,96177
2018-03-21T22:15:36.956Z,96182
2018-03-21T22:18:05.071Z,96177
2018-03-21T22:20:33.244Z,96174
2018-03-21T22:23:01.365Z,96169
2018-03-21T22:25:29.624Z,96163
2018-03-21T22:27:58.000Z,96167
2018-03-21T22:30:26.170Z,96162
2018-03-21T22:32:54.291Z,96166
2018-03-21T22:35:23.183Z,96167
2018-03-21T22:37:51.291Z,96164
2018-03-21T22:40:19.415Z,96162
2018-03-21T22:42:47.655Z,96159
2018-03-21T22:45:15.971Z,96150
2018-03-21T22:47:44.185Z,96152
2018-03-21T22:50:12.383Z,96146
2018-03-21T22:52:40.545Z,96141
2018-03-21T22:55:09.736Z,96139
2018-03-21T23:10:32.881Z,96141
2018-03-21T23:13:01.029Z,96130
2018-03-21T23:15:29.143Z,96133
2018-03-21T23:17:57.364Z,96143
2018-03-21T23:20:25.575Z,96136
2018-03-21T23:22:53.759Z,96122
2018-03-21T23:25:25.517Z,96127
2018-03-21T23:27:54.564Z,96129
2018-03-21T23:30:22.687Z,96117
2018-03-21T23:32:50.829Z,96127
2018-03-21T23:35:19.023Z,96122
2018-03-21T23:37:47.162Z,96119
2018-03-21T23:40:17.203Z,96123
2018-03-21T23:42:45.351Z,96120
2018-03-21T23:45:14.242Z,96119
2018-03-21T23:47:42.349Z,96111
2018-03-21T23:50:14.825Z,96121
2018-03-21T23:52:43.819Z,96118
2018-03-21T23:55:11.937Z,96115
2018-03-21T23:57:40.062Z,96116
